EZY26HM EDDH-EGKK
Flight info
| Callsign | EZY26HM |
|---|---|
| Flight time | 1h 24m |
| Altitude | 36000 |
| Route | WSN5G WSN N125 ITMIZ DCT GALSO Q63 ARREK Y4 TEBRA |
| Aircraft | A21N/M-SDE3FGHIRWY/LB1 |
Departure
| Time | 2026-04-21 18:20 |
|---|---|
| Airport | Hamburg Helmut Schmidt Airport (EDDH) |
Arrival
| Time | 2026-04-21 19:44 |
|---|---|
| Airport | London Gatwick Airport (EGKK) |
| Time | Latitude | Longitude | Altitude | Speed | Heading |
|---|---|---|---|---|---|
| 2026-04-21 17:50 | 53.63195 | 10.00377 | 43 ft | 0 kts | 86° |
| 2026-04-21 18:10 | 53.63194 | 10.00364 | 43 ft | 2 kts | 86° |
| 2026-04-21 18:10 | 53.63193 | 10.00339 | 41 ft | 2 kts | 86° |
| 2026-04-21 18:10 | 53.63192 | 10.00314 | 41 ft | 2 kts | 86° |
| 2026-04-21 18:10 | 53.63192 | 10.00288 | 40 ft | 2 kts | 86° |
| 2026-04-21 18:11 | 53.63191 | 10.00264 | 39 ft | 1 kts | 89° |
| 2026-04-21 18:11 | 53.63196 | 10.00247 | 38 ft | 1 kts | 156° |
| 2026-04-21 18:11 | 53.63203 | 10.00244 | 38 ft | 0 kts | 181° |
| 2026-04-21 18:11 | 53.63208 | 10.00244 | 39 ft | 0 kts | 175° |
| 2026-04-21 18:16 | 53.63206 | 10.00244 | 38 ft | 1 kts | 175° |
| 2026-04-21 18:16 | 53.63167 | 10.00251 | 38 ft | 8 kts | 175° |
| 2026-04-21 18:17 | 53.63104 | 10.00260 | 38 ft | 9 kts | 177° |
| 2026-04-21 18:17 | 53.63035 | 10.00225 | 38 ft | 11 kts | 210° |
| 2026-04-21 18:17 | 53.62964 | 10.00151 | 38 ft | 8 kts | 212° |
| 2026-04-21 18:17 | 53.62917 | 10.00100 | 37 ft | 9 kts | 212° |
| 2026-04-21 18:18 | 53.62862 | 10.00020 | 35 ft | 11 kts | 240° |
| 2026-04-21 18:18 | 53.62821 | 9.99887 | 33 ft | 9 kts | 243° |
| 2026-04-21 18:18 | 53.62817 | 9.99794 | 32 ft | 9 kts | 317° |
| 2026-04-21 18:18 | 53.62828 | 9.99781 | 32 ft | 0 kts | 328° |
| 2026-04-21 18:19 | 53.62830 | 9.99778 | 31 ft | 1 kts | 329° |
| 2026-04-21 18:19 | 53.62976 | 9.99650 | 29 ft | 61 kts | 333° |
| 2026-04-21 18:19 | 53.63499 | 9.99196 | 35 ft | 126 kts | 333° |
| 2026-04-21 18:19 | 53.64467 | 9.98341 | 110 ft | 178 kts | 332° |
| 2026-04-21 18:20 | 53.65454 | 9.97434 | 656 ft | 184 kts | 336° |
| 2026-04-21 18:20 | 53.66588 | 9.96480 | 1527 ft | 183 kts | 340° |
| 2026-04-21 18:20 | 53.67662 | 9.95593 | 2114 ft | 192 kts | 340° |
| 2026-04-21 18:20 | 53.68741 | 9.94692 | 2554 ft | 207 kts | 339° |
| 2026-04-21 18:21 | 53.69984 | 9.93634 | 3125 ft | 218 kts | 337° |
| 2026-04-21 18:21 | 53.71157 | 9.91940 | 3743 ft | 238 kts | 303° |
| 2026-04-21 18:21 | 53.71545 | 9.89153 | 4340 ft | 260 kts | 265° |
| 2026-04-21 18:21 | 53.71067 | 9.86136 | 4898 ft | 277 kts | 250° |
| 2026-04-21 18:22 | 53.70367 | 9.83046 | 5591 ft | 288 kts | 249° |
| 2026-04-21 18:22 | 53.69660 | 9.79888 | 6478 ft | 292 kts | 250° |
| 2026-04-21 18:22 | 53.68984 | 9.76697 | 7344 ft | 295 kts | 251° |
| 2026-04-21 18:22 | 53.68317 | 9.73405 | 8228 ft | 299 kts | 252° |
| 2026-04-21 18:23 | 53.67667 | 9.70125 | 9112 ft | 302 kts | 252° |
| 2026-04-21 18:23 | 53.67003 | 9.66749 | 9841 ft | 306 kts | 252° |
| 2026-04-21 18:23 | 53.66331 | 9.63343 | 10235 ft | 308 kts | 252° |
| 2026-04-21 18:23 | 53.65623 | 9.59939 | 10334 ft | 309 kts | 248° |
| 2026-04-21 18:24 | 53.64676 | 9.56665 | 10376 ft | 312 kts | 239° |
| 2026-04-21 18:24 | 53.63461 | 9.53566 | 10687 ft | 325 kts | 234° |
| 2026-04-21 18:24 | 53.62108 | 9.50425 | 11075 ft | 342 kts | 233° |
| 2026-04-21 18:24 | 53.60679 | 9.47154 | 11679 ft | 352 kts | 233° |
| 2026-04-21 18:25 | 53.59237 | 9.43836 | 12453 ft | 356 kts | 233° |
| 2026-04-21 18:25 | 53.57777 | 9.40466 | 13202 ft | 360 kts | 233° |
| 2026-04-21 18:25 | 53.56315 | 9.37078 | 13925 ft | 364 kts | 233° |
| 2026-04-21 18:25 | 53.54817 | 9.33606 | 14631 ft | 369 kts | 232° |
| 2026-04-21 18:26 | 53.53319 | 9.30136 | 15335 ft | 372 kts | 232° |
| 2026-04-21 18:26 | 53.51785 | 9.26584 | 16035 ft | 376 kts | 232° |
| 2026-04-21 18:26 | 53.50256 | 9.23052 | 16681 ft | 380 kts | 232° |
| 2026-04-21 18:26 | 53.48685 | 9.19430 | 17306 ft | 385 kts | 232° |
| 2026-04-21 18:27 | 53.47098 | 9.15775 | 17949 ft | 389 kts | 232° |
| 2026-04-21 18:27 | 53.45517 | 9.12141 | 18566 ft | 393 kts | 232° |
| 2026-04-21 18:27 | 53.43903 | 9.08434 | 19191 ft | 396 kts | 232° |
| 2026-04-21 18:27 | 53.42277 | 9.04702 | 19786 ft | 400 kts | 232° |
| 2026-04-21 18:28 | 53.40614 | 9.00896 | 20373 ft | 404 kts | 232° |
| 2026-04-21 18:28 | 53.38943 | 8.97081 | 20937 ft | 408 kts | 232° |
| 2026-04-21 18:28 | 53.37281 | 8.93286 | 21479 ft | 411 kts | 232° |
| 2026-04-21 18:28 | 53.35649 | 8.89340 | 22027 ft | 416 kts | 236° |
| 2026-04-21 18:29 | 53.34258 | 8.85084 | 22830 ft | 412 kts | 244° |
| 2026-04-21 18:29 | 53.33167 | 8.80695 | 23805 ft | 403 kts | 249° |
| 2026-04-21 18:29 | 53.32220 | 8.76364 | 24753 ft | 393 kts | 250° |
| 2026-04-21 18:29 | 53.31302 | 8.72091 | 25415 ft | 391 kts | 249° |
| 2026-04-21 18:30 | 53.30359 | 8.67764 | 25622 ft | 402 kts | 249° |
| 2026-04-21 18:30 | 53.29377 | 8.63292 | 25840 ft | 412 kts | 249° |
| 2026-04-21 18:30 | 53.28379 | 8.58730 | 26039 ft | 422 kts | 250° |
| 2026-04-21 18:30 | 53.27354 | 8.54038 | 26232 ft | 432 kts | 249° |
| 2026-04-21 18:31 | 53.26331 | 8.49265 | 26416 ft | 442 kts | 251° |
| 2026-04-21 18:31 | 53.25384 | 8.44323 | 26641 ft | 450 kts | 252° |
| 2026-04-21 18:31 | 53.24456 | 8.39373 | 27004 ft | 453 kts | 252° |
| 2026-04-21 18:31 | 53.23515 | 8.34351 | 27411 ft | 456 kts | 251° |
| 2026-04-21 18:32 | 53.22567 | 8.29303 | 27788 ft | 458 kts | 251° |
| 2026-04-21 18:32 | 53.21614 | 8.24273 | 28148 ft | 461 kts | 251° |
| 2026-04-21 18:32 | 53.20641 | 8.19162 | 28501 ft | 463 kts | 251° |
| 2026-04-21 18:32 | 53.19659 | 8.14026 | 28832 ft | 466 kts | 251° |
| 2026-04-21 18:33 | 53.18677 | 8.08872 | 29167 ft | 468 kts | 251° |
| 2026-04-21 18:33 | 53.17708 | 8.03732 | 29479 ft | 471 kts | 252° |
| 2026-04-21 18:33 | 53.16719 | 7.98473 | 29800 ft | 473 kts | 252° |
| 2026-04-21 18:33 | 53.15744 | 7.93302 | 30110 ft | 475 kts | 251° |
| 2026-04-21 18:34 | 53.14750 | 7.88057 | 30400 ft | 478 kts | 251° |
| 2026-04-21 18:34 | 53.13741 | 7.82753 | 30696 ft | 480 kts | 251° |
| 2026-04-21 18:34 | 53.12723 | 7.77434 | 30978 ft | 482 kts | 251° |
| 2026-04-21 18:34 | 53.11706 | 7.72132 | 31255 ft | 484 kts | 251° |
| 2026-04-21 18:35 | 53.11002 | 7.68587 | 31487 ft | 483 kts | 250° |
| 2026-04-21 18:35 | 53.09375 | 7.61783 | 32013 ft | 480 kts | 244° |
| 2026-04-21 18:35 | 53.07982 | 7.56735 | 32430 ft | 477 kts | 244° |
| 2026-04-21 18:35 | 53.06589 | 7.51773 | 32820 ft | 475 kts | 244° |
| 2026-04-21 18:36 | 53.05192 | 7.46818 | 33170 ft | 473 kts | 244° |
| 2026-04-21 18:36 | 53.03813 | 7.41931 | 33495 ft | 472 kts | 244° |
| 2026-04-21 18:36 | 53.02419 | 7.36992 | 33805 ft | 472 kts | 244° |
| 2026-04-21 18:36 | 53.01036 | 7.32085 | 34134 ft | 470 kts | 243° |
| 2026-04-21 18:37 | 52.99656 | 7.27200 | 34405 ft | 469 kts | 243° |
| 2026-04-21 18:37 | 52.98280 | 7.22334 | 34655 ft | 469 kts | 243° |
| 2026-04-21 18:37 | 52.96892 | 7.17441 | 34838 ft | 469 kts | 243° |
| 2026-04-21 18:37 | 52.95515 | 7.12597 | 35004 ft | 469 kts | 243° |
| 2026-04-21 18:38 | 52.94117 | 7.07686 | 35173 ft | 470 kts | 243° |
| 2026-04-21 18:38 | 52.92738 | 7.02852 | 35336 ft | 470 kts | 243° |
| 2026-04-21 18:38 | 52.91336 | 6.97956 | 35455 ft | 470 kts | 243° |
| 2026-04-21 18:38 | 52.89934 | 6.93059 | 35609 ft | 470 kts | 244° |
| 2026-04-21 18:39 | 52.88542 | 6.88213 | 35745 ft | 470 kts | 244° |
| 2026-04-21 18:39 | 52.87128 | 6.83296 | 35903 ft | 469 kts | 244° |
| 2026-04-21 18:39 | 52.85741 | 6.78480 | 36005 ft | 470 kts | 244° |
| 2026-04-21 18:39 | 52.84329 | 6.73594 | 36146 ft | 470 kts | 244° |
| 2026-04-21 18:40 | 52.82930 | 6.68762 | 36250 ft | 470 kts | 244° |
| 2026-04-21 18:40 | 52.80574 | 6.60642 | 36306 ft | 470 kts | 244° |
| 2026-04-21 18:41 | 52.77274 | 6.49304 | 36316 ft | 469 kts | 244° |
| 2026-04-21 18:41 | 52.74447 | 6.39647 | 36331 ft | 468 kts | 245° |
| 2026-04-21 18:42 | 52.71619 | 6.30021 | 36305 ft | 469 kts | 244° |
| 2026-04-21 18:42 | 52.68763 | 6.20343 | 36331 ft | 469 kts | 244° |
| 2026-04-21 18:43 | 52.65921 | 6.10752 | 36317 ft | 468 kts | 244° |
| 2026-04-21 18:43 | 52.63075 | 6.01185 | 36323 ft | 468 kts | 244° |
| 2026-04-21 18:44 | 52.60215 | 5.91604 | 36328 ft | 468 kts | 244° |
| 2026-04-21 18:44 | 52.57345 | 5.82029 | 36318 ft | 467 kts | 244° |
| 2026-04-21 18:45 | 52.54468 | 5.72478 | 36319 ft | 467 kts | 244° |
| 2026-04-21 18:45 | 52.51611 | 5.63021 | 36313 ft | 466 kts | 244° |
| 2026-04-21 18:46 | 52.48717 | 5.53481 | 36323 ft | 466 kts | 244° |
| 2026-04-21 18:46 | 52.45836 | 5.44030 | 36307 ft | 465 kts | 245° |
| 2026-04-21 18:47 | 52.42957 | 5.34610 | 36296 ft | 464 kts | 244° |
| 2026-04-21 18:47 | 52.40053 | 5.25147 | 36299 ft | 464 kts | 244° |
| 2026-04-21 18:48 | 52.37147 | 5.15718 | 36321 ft | 464 kts | 244° |
| 2026-04-21 18:48 | 52.34254 | 5.06370 | 36299 ft | 464 kts | 244° |
| 2026-04-21 18:49 | 52.31359 | 4.97050 | 36305 ft | 463 kts | 244° |
| 2026-04-21 18:49 | 52.28919 | 4.89218 | 36313 ft | 463 kts | 244° |
| 2026-04-21 18:50 | 52.25510 | 4.78328 | 36302 ft | 462 kts | 245° |
| 2026-04-21 18:50 | 52.22580 | 4.69003 | 36291 ft | 462 kts | 245° |
| 2026-04-21 18:51 | 52.19666 | 4.59764 | 36307 ft | 461 kts | 245° |
| 2026-04-21 18:51 | 52.16728 | 4.50484 | 36298 ft | 460 kts | 245° |
| 2026-04-21 18:52 | 52.13797 | 4.41258 | 36304 ft | 460 kts | 245° |
| 2026-04-21 18:52 | 52.10878 | 4.32104 | 36297 ft | 459 kts | 244° |
| 2026-04-21 18:53 | 52.07929 | 4.22897 | 36293 ft | 458 kts | 244° |
| 2026-04-21 18:53 | 52.05000 | 4.13780 | 36280 ft | 457 kts | 244° |
| 2026-04-21 18:54 | 52.02072 | 4.04706 | 36286 ft | 455 kts | 244° |
| 2026-04-21 18:54 | 51.99142 | 3.95653 | 36282 ft | 456 kts | 245° |
| 2026-04-21 18:55 | 51.96685 | 3.88090 | 36287 ft | 455 kts | 244° |
| 2026-04-21 18:55 | 51.93267 | 3.77613 | 35867 ft | 449 kts | 245° |
| 2026-04-21 18:55 | 51.91813 | 3.73170 | 35357 ft | 448 kts | 245° |
| 2026-04-21 18:56 | 51.90365 | 3.68753 | 34881 ft | 446 kts | 245° |
| 2026-04-21 18:56 | 51.88913 | 3.64328 | 34373 ft | 445 kts | 245° |
| 2026-04-21 18:56 | 51.87454 | 3.59882 | 33870 ft | 446 kts | 245° |
| 2026-04-21 18:56 | 51.86019 | 3.55518 | 33355 ft | 448 kts | 245° |
| 2026-04-21 18:57 | 51.84556 | 3.51075 | 32738 ft | 449 kts | 244° |
| 2026-04-21 18:57 | 51.83083 | 3.46620 | 32050 ft | 452 kts | 244° |
| 2026-04-21 18:57 | 51.81599 | 3.42145 | 31355 ft | 454 kts | 244° |
| 2026-04-21 18:57 | 51.80122 | 3.37690 | 30689 ft | 454 kts | 244° |
| 2026-04-21 18:58 | 51.78652 | 3.33271 | 30206 ft | 449 kts | 243° |
| 2026-04-21 18:58 | 51.75848 | 3.24383 | 30136 ft | 440 kts | 248° |
| 2026-04-21 18:58 | 51.74681 | 3.19820 | 29744 ft | 441 kts | 251° |
| 2026-04-21 18:59 | 51.73699 | 3.15170 | 29269 ft | 439 kts | 255° |
| 2026-04-21 18:59 | 51.72907 | 3.10510 | 28814 ft | 435 kts | 258° |
| 2026-04-21 18:59 | 51.72283 | 3.05735 | 28349 ft | 431 kts | 262° |
| 2026-04-21 18:59 | 51.71835 | 3.01039 | 27893 ft | 428 kts | 264° |
| 2026-04-21 19:00 | 51.71432 | 2.96283 | 27411 ft | 426 kts | 265° |
| 2026-04-21 19:00 | 51.71037 | 2.91599 | 26948 ft | 422 kts | 265° |
| 2026-04-21 19:00 | 51.70635 | 2.86890 | 26482 ft | 419 kts | 265° |
| 2026-04-21 19:00 | 51.70242 | 2.82310 | 26023 ft | 417 kts | 264° |
| 2026-04-21 19:01 | 51.69838 | 2.77689 | 25555 ft | 414 kts | 264° |
| 2026-04-21 19:01 | 51.69432 | 2.73074 | 25084 ft | 412 kts | 264° |
| 2026-04-21 19:01 | 51.69035 | 2.68576 | 24626 ft | 410 kts | 264° |
| 2026-04-21 19:01 | 51.68627 | 2.63992 | 24151 ft | 408 kts | 264° |
| 2026-04-21 19:02 | 51.68225 | 2.59514 | 23677 ft | 406 kts | 264° |
| 2026-04-21 19:02 | 51.67820 | 2.55008 | 23198 ft | 403 kts | 264° |
| 2026-04-21 19:02 | 51.67410 | 2.50483 | 22714 ft | 401 kts | 264° |
| 2026-04-21 19:02 | 51.67004 | 2.46015 | 22235 ft | 398 kts | 264° |
| 2026-04-21 19:03 | 51.66600 | 2.41578 | 21756 ft | 395 kts | 264° |
| 2026-04-21 19:03 | 51.66200 | 2.37222 | 21282 ft | 393 kts | 264° |
| 2026-04-21 19:03 | 51.65799 | 2.32864 | 20807 ft | 390 kts | 263° |
| 2026-04-21 19:03 | 51.65403 | 2.28588 | 20337 ft | 389 kts | 263° |
| 2026-04-21 19:04 | 51.65000 | 2.24252 | 19866 ft | 387 kts | 262° |
| 2026-04-21 19:04 | 51.64598 | 2.19951 | 19391 ft | 385 kts | 262° |
| 2026-04-21 19:04 | 51.64195 | 2.15674 | 18917 ft | 383 kts | 263° |
| 2026-04-21 19:04 | 51.63796 | 2.11435 | 18449 ft | 381 kts | 262° |
| 2026-04-21 19:05 | 51.63396 | 2.07132 | 17971 ft | 379 kts | 263° |
| 2026-04-21 19:05 | 51.63007 | 2.02916 | 17497 ft | 377 kts | 263° |
| 2026-04-21 19:05 | 51.62618 | 1.98693 | 17027 ft | 374 kts | 262° |
| 2026-04-21 19:05 | 51.62236 | 1.94576 | 16562 ft | 371 kts | 262° |
| 2026-04-21 19:06 | 51.61854 | 1.90463 | 16099 ft | 369 kts | 262° |
| 2026-04-21 19:06 | 51.61393 | 1.86385 | 15630 ft | 368 kts | 255° |
| 2026-04-21 19:06 | 51.60439 | 1.82596 | 15165 ft | 365 kts | 240° |
| 2026-04-21 19:06 | 51.59003 | 1.79291 | 14713 ft | 362 kts | 229° |
| 2026-04-21 19:07 | 51.57339 | 1.76258 | 14345 ft | 358 kts | 226° |
| 2026-04-21 19:07 | 51.55657 | 1.73310 | 14289 ft | 359 kts | 226° |
| 2026-04-21 19:07 | 51.53965 | 1.70322 | 14283 ft | 360 kts | 226° |
| 2026-04-21 19:07 | 51.52278 | 1.67300 | 14278 ft | 361 kts | 227° |
| 2026-04-21 19:08 | 51.50608 | 1.64272 | 14282 ft | 361 kts | 229° |
| 2026-04-21 19:08 | 51.49140 | 1.61032 | 14276 ft | 362 kts | 238° |
| 2026-04-21 19:08 | 51.47982 | 1.57398 | 14276 ft | 362 kts | 247° |
| 2026-04-21 19:08 | 51.47079 | 1.53603 | 14279 ft | 363 kts | 250° |
| 2026-04-21 19:09 | 51.46246 | 1.49846 | 14274 ft | 362 kts | 251° |
| 2026-04-21 19:09 | 51.45398 | 1.46038 | 14275 ft | 362 kts | 250° |
| 2026-04-21 19:09 | 51.44540 | 1.42253 | 14278 ft | 363 kts | 250° |
| 2026-04-21 19:09 | 51.43485 | 1.38560 | 14269 ft | 361 kts | 237° |
| 2026-04-21 19:10 | 51.41891 | 1.35520 | 14273 ft | 360 kts | 221° |
| 2026-04-21 19:10 | 51.39906 | 1.33032 | 14283 ft | 358 kts | 214° |
| 2026-04-21 19:10 | 51.37908 | 1.30725 | 14273 ft | 358 kts | 213° |
| 2026-04-21 19:10 | 51.35884 | 1.28402 | 14270 ft | 358 kts | 214° |
| 2026-04-21 19:11 | 51.33870 | 1.26073 | 14269 ft | 358 kts | 214° |
| 2026-04-21 19:11 | 51.31852 | 1.23720 | 14268 ft | 357 kts | 214° |
| 2026-04-21 19:11 | 51.29839 | 1.21361 | 14267 ft | 358 kts | 215° |
| 2026-04-21 19:11 | 51.27859 | 1.19034 | 14262 ft | 358 kts | 214° |
| 2026-04-21 19:12 | 51.26522 | 1.17464 | 14265 ft | 359 kts | 214° |
| 2026-04-21 19:12 | 51.23838 | 1.14308 | 14263 ft | 359 kts | 214° |
| 2026-04-21 19:12 | 51.21830 | 1.11951 | 14262 ft | 358 kts | 215° |
| 2026-04-21 19:12 | 51.19837 | 1.09611 | 14259 ft | 358 kts | 215° |
| 2026-04-21 19:13 | 51.17832 | 1.07256 | 14251 ft | 358 kts | 216° |
| 2026-04-21 19:13 | 51.16056 | 1.04456 | 13972 ft | 362 kts | 236° |
| 2026-04-21 19:13 | 51.14970 | 1.00903 | 13658 ft | 356 kts | 249° |
| 2026-04-21 19:13 | 51.14124 | 0.97248 | 13208 ft | 354 kts | 250° |
| 2026-04-21 19:14 | 51.13278 | 0.93615 | 12736 ft | 352 kts | 249° |
| 2026-04-21 19:14 | 51.12378 | 0.89976 | 12251 ft | 351 kts | 248° |
| 2026-04-21 19:14 | 51.11460 | 0.86453 | 11798 ft | 349 kts | 246° |
| 2026-04-21 19:14 | 51.10504 | 0.82902 | 11342 ft | 347 kts | 246° |
| 2026-04-21 19:15 | 51.09543 | 0.79396 | 10871 ft | 346 kts | 246° |
| 2026-04-21 19:15 | 51.08574 | 0.75897 | 10402 ft | 344 kts | 245° |
| 2026-04-21 19:15 | 51.07622 | 0.72480 | 9980 ft | 342 kts | 245° |
| 2026-04-21 19:15 | 51.06673 | 0.69087 | 9767 ft | 332 kts | 245° |
| 2026-04-21 19:16 | 51.05750 | 0.65789 | 9582 ft | 322 kts | 245° |
| 2026-04-21 19:16 | 51.04847 | 0.62570 | 9398 ft | 312 kts | 245° |
| 2026-04-21 19:16 | 51.03979 | 0.59485 | 9174 ft | 305 kts | 245° |
| 2026-04-21 19:16 | 51.03123 | 0.56447 | 8824 ft | 302 kts | 245° |
| 2026-04-21 19:17 | 51.01413 | 0.50388 | 8246 ft | 298 kts | 245° |
| 2026-04-21 19:17 | 51.00562 | 0.47381 | 8245 ft | 301 kts | 245° |
| 2026-04-21 19:17 | 50.99706 | 0.44356 | 8243 ft | 301 kts | 245° |
| 2026-04-21 19:18 | 50.98854 | 0.41348 | 8241 ft | 302 kts | 245° |
| 2026-04-21 19:18 | 50.97993 | 0.38317 | 8236 ft | 302 kts | 245° |
| 2026-04-21 19:18 | 50.97313 | 0.35150 | 8216 ft | 303 kts | 263° |
| 2026-04-21 19:18 | 50.97283 | 0.31855 | 8229 ft | 302 kts | 274° |
| 2026-04-21 19:19 | 50.97435 | 0.28536 | 8225 ft | 302 kts | 275° |
| 2026-04-21 19:19 | 50.97619 | 0.25227 | 8234 ft | 302 kts | 276° |
| 2026-04-21 19:19 | 50.97807 | 0.21919 | 8230 ft | 302 kts | 276° |
| 2026-04-21 19:19 | 50.97997 | 0.18594 | 8215 ft | 302 kts | 276° |
| 2026-04-21 19:20 | 50.98185 | 0.15297 | 8222 ft | 302 kts | 276° |
| 2026-04-21 19:20 | 50.98376 | 0.11976 | 8240 ft | 302 kts | 276° |
| 2026-04-21 19:20 | 50.98568 | 0.08674 | 8208 ft | 299 kts | 276° |
| 2026-04-21 19:20 | 50.98758 | 0.05402 | 7840 ft | 298 kts | 276° |
| 2026-04-21 19:21 | 50.98950 | 0.02135 | 7412 ft | 299 kts | 276° |
| 2026-04-21 19:21 | 50.99145 | -0.01160 | 7019 ft | 298 kts | 276° |
| 2026-04-21 19:21 | 50.99336 | -0.04412 | 6628 ft | 297 kts | 276° |
| 2026-04-21 19:21 | 50.99526 | -0.07663 | 6246 ft | 296 kts | 276° |
| 2026-04-21 19:22 | 50.99714 | -0.10878 | 5869 ft | 295 kts | 276° |
| 2026-04-21 19:22 | 50.99898 | -0.14106 | 5481 ft | 294 kts | 276° |
| 2026-04-21 19:22 | 51.00082 | -0.17332 | 5111 ft | 293 kts | 276° |
| 2026-04-21 19:22 | 51.00266 | -0.20539 | 4730 ft | 292 kts | 276° |
| 2026-04-21 19:23 | 51.00449 | -0.23727 | 4359 ft | 291 kts | 276° |
| 2026-04-21 19:23 | 51.00630 | -0.26912 | 3995 ft | 290 kts | 276° |
| 2026-04-21 19:23 | 51.00812 | -0.30094 | 3629 ft | 289 kts | 276° |
| 2026-04-21 19:23 | 51.00990 | -0.33241 | 3278 ft | 288 kts | 276° |
| 2026-04-21 19:24 | 51.01165 | -0.36414 | 2997 ft | 284 kts | 276° |
| 2026-04-21 19:24 | 51.01331 | -0.39533 | 2966 ft | 282 kts | 276° |
| 2026-04-21 19:24 | 51.01671 | -0.42476 | 2939 ft | 263 kts | 297° |
| 2026-04-21 19:24 | 51.02703 | -0.44683 | 2949 ft | 244 kts | 330° |
| 2026-04-21 19:25 | 51.04151 | -0.45962 | 2966 ft | 238 kts | 343° |
| 2026-04-21 19:25 | 51.05689 | -0.46987 | 2966 ft | 237 kts | 346° |
| 2026-04-21 19:25 | 51.07216 | -0.47950 | 2969 ft | 237 kts | 346° |
| 2026-04-21 19:25 | 51.08751 | -0.48863 | 2965 ft | 234 kts | 353° |
| 2026-04-21 19:26 | 51.10302 | -0.48854 | 2958 ft | 216 kts | 27° |
| 2026-04-21 19:26 | 51.11460 | -0.47567 | 2966 ft | 203 kts | 59° |
| 2026-04-21 19:26 | 51.11891 | -0.45491 | 2972 ft | 199 kts | 89° |
| 2026-04-21 19:26 | 51.11826 | -0.43304 | 2958 ft | 195 kts | 91° |
| 2026-04-21 19:27 | 51.11867 | -0.41181 | 2775 ft | 189 kts | 84° |
| 2026-04-21 19:27 | 51.12060 | -0.39132 | 2520 ft | 185 kts | 79° |
| 2026-04-21 19:27 | 51.12323 | -0.37171 | 2325 ft | 174 kts | 78° |
| 2026-04-21 19:27 | 51.12574 | -0.35390 | 2115 ft | 157 kts | 78° |
| 2026-04-21 19:28 | 51.12802 | -0.33765 | 1862 ft | 144 kts | 77° |
| 2026-04-21 19:28 | 51.13006 | -0.32271 | 1655 ft | 137 kts | 77° |
| 2026-04-21 19:28 | 51.13206 | -0.30792 | 1504 ft | 135 kts | 77° |
| 2026-04-21 19:28 | 51.13401 | -0.29354 | 1312 ft | 133 kts | 77° |
| 2026-04-21 19:29 | 51.13591 | -0.27958 | 1121 ft | 126 kts | 77° |
| 2026-04-21 19:29 | 51.13785 | -0.26593 | 966 ft | 128 kts | 76° |
| 2026-04-21 19:29 | 51.13976 | -0.25209 | 807 ft | 129 kts | 77° |
| 2026-04-21 19:29 | 51.14159 | -0.23788 | 631 ft | 131 kts | 77° |
| 2026-04-21 19:30 | 51.14351 | -0.22370 | 450 ft | 139 kts | 76° |
| 2026-04-21 19:30 | 51.14585 | -0.20680 | 856 ft | 167 kts | 76° |
| 2026-04-21 19:30 | 51.14829 | -0.18915 | 1810 ft | 167 kts | 77° |
| 2026-04-21 19:30 | 51.14960 | -0.17070 | 2460 ft | 181 kts | 95° |
| 2026-04-21 19:31 | 51.14366 | -0.15160 | 2803 ft | 207 kts | 129° |
| 2026-04-21 19:31 | 51.13082 | -0.13991 | 2972 ft | 223 kts | 155° |
| 2026-04-21 19:31 | 51.11579 | -0.13368 | 2973 ft | 225 kts | 160° |
| 2026-04-21 19:31 | 51.10033 | -0.12988 | 2962 ft | 231 kts | 175° |
| 2026-04-21 19:32 | 51.08461 | -0.13753 | 2963 ft | 247 kts | 208° |
| 2026-04-21 19:32 | 51.07276 | -0.15786 | 2972 ft | 256 kts | 238° |
| 2026-04-21 19:32 | 51.06508 | -0.18332 | 2977 ft | 257 kts | 245° |
| 2026-04-21 19:32 | 51.05824 | -0.20964 | 2971 ft | 258 kts | 246° |
| 2026-04-21 19:33 | 51.05381 | -0.22713 | 2970 ft | 258 kts | 246° |
| 2026-04-21 19:33 | 51.04494 | -0.26259 | 2965 ft | 259 kts | 246° |
| 2026-04-21 19:33 | 51.03828 | -0.28916 | 2967 ft | 259 kts | 246° |
| 2026-04-21 19:33 | 51.03154 | -0.31590 | 2962 ft | 259 kts | 246° |
| 2026-04-21 19:34 | 51.02490 | -0.34219 | 2961 ft | 259 kts | 246° |
| 2026-04-21 19:34 | 51.01812 | -0.36882 | 2964 ft | 258 kts | 246° |
| 2026-04-21 19:34 | 51.01141 | -0.39523 | 2965 ft | 258 kts | 246° |
| 2026-04-21 19:34 | 51.00471 | -0.42163 | 2966 ft | 258 kts | 246° |
| 2026-04-21 19:35 | 50.99811 | -0.44783 | 2966 ft | 258 kts | 246° |
| 2026-04-21 19:35 | 50.98747 | -0.50222 | 2962 ft | 259 kts | 256° |
| 2026-04-21 19:35 | 50.98333 | -0.53029 | 2963 ft | 259 kts | 256° |
| 2026-04-21 19:36 | 50.97931 | -0.55794 | 2962 ft | 260 kts | 256° |
| 2026-04-21 19:36 | 50.97527 | -0.58595 | 2964 ft | 260 kts | 257° |
| 2026-04-21 19:36 | 50.97333 | -0.61444 | 2948 ft | 259 kts | 280° |
| 2026-04-21 19:36 | 50.97955 | -0.64029 | 2957 ft | 251 kts | 313° |
| 2026-04-21 19:37 | 50.99255 | -0.65703 | 2961 ft | 236 kts | 346° |
| 2026-04-21 19:37 | 51.00791 | -0.66021 | 2970 ft | 219 kts | 16° |
| 2026-04-21 19:37 | 51.02291 | -0.65546 | 2974 ft | 218 kts | 19° |
| 2026-04-21 19:37 | 51.03719 | -0.64851 | 2971 ft | 213 kts | 28° |
| 2026-04-21 19:38 | 51.05088 | -0.63937 | 2971 ft | 213 kts | 30° |
| 2026-04-21 19:38 | 51.06432 | -0.62996 | 2969 ft | 213 kts | 31° |
| 2026-04-21 19:38 | 51.07346 | -0.62342 | 2969 ft | 212 kts | 31° |
| 2026-04-21 19:38 | 51.08769 | -0.60418 | 2965 ft | 200 kts | 65° |
| 2026-04-21 19:39 | 51.09278 | -0.58383 | 2970 ft | 199 kts | 75° |
| 2026-04-21 19:39 | 51.09665 | -0.56273 | 2971 ft | 198 kts | 76° |
| 2026-04-21 19:39 | 51.10010 | -0.54161 | 2972 ft | 198 kts | 77° |
| 2026-04-21 19:39 | 51.10329 | -0.52032 | 2972 ft | 198 kts | 78° |
| 2026-04-21 19:40 | 51.10631 | -0.49887 | 2973 ft | 198 kts | 78° |
| 2026-04-21 19:40 | 51.10921 | -0.47749 | 2974 ft | 198 kts | 78° |
| 2026-04-21 19:40 | 51.11208 | -0.45604 | 2972 ft | 198 kts | 78° |
| 2026-04-21 19:40 | 51.11494 | -0.43463 | 2964 ft | 197 kts | 78° |
| 2026-04-21 19:41 | 51.11770 | -0.41400 | 2817 ft | 190 kts | 78° |
| 2026-04-21 19:41 | 51.12044 | -0.39363 | 2558 ft | 186 kts | 78° |
| 2026-04-21 19:41 | 51.12311 | -0.37380 | 2328 ft | 179 kts | 77° |
| 2026-04-21 19:41 | 51.12558 | -0.35555 | 2153 ft | 160 kts | 77° |
| 2026-04-21 19:42 | 51.12785 | -0.33886 | 1889 ft | 147 kts | 78° |
| 2026-04-21 19:42 | 51.12990 | -0.32371 | 1669 ft | 133 kts | 78° |
| 2026-04-21 19:42 | 51.13182 | -0.30950 | 1519 ft | 133 kts | 77° |
| 2026-04-21 19:42 | 51.13378 | -0.29510 | 1332 ft | 133 kts | 77° |
| 2026-04-21 19:43 | 51.13573 | -0.28084 | 1156 ft | 132 kts | 77° |
| 2026-04-21 19:43 | 51.13767 | -0.26660 | 981 ft | 132 kts | 77° |
| 2026-04-21 19:43 | 51.13958 | -0.25229 | 799 ft | 131 kts | 77° |
| 2026-04-21 19:43 | 51.14146 | -0.23817 | 612 ft | 131 kts | 76° |
| 2026-04-21 19:44 | 51.14350 | -0.22394 | 426 ft | 131 kts | 75° |
| 2026-04-21 19:44 | 51.14548 | -0.20961 | 263 ft | 133 kts | 76° |
| 2026-04-21 19:44 | 51.14740 | -0.19580 | 191 ft | 113 kts | 77° |
| 2026-04-21 19:44 | 51.14854 | -0.18785 | 195 ft | 31 kts | 73° |
| 2026-04-21 19:45 | 51.14946 | -0.18500 | 194 ft | 24 kts | 52° |
| 2026-04-21 19:45 | 51.15022 | -0.18348 | 194 ft | 3 kts | 51° |
| 2026-04-21 19:45 | 51.15023 | -0.18347 | 194 ft | 0 kts | 51° |
| 2026-04-21 19:45 | 51.15024 | -0.18344 | 194 ft | 1 kts | 51° |
| 2026-04-21 19:46 | 51.15033 | -0.18326 | 194 ft | 2 kts | 51° |
| 2026-04-21 19:46 | 51.15057 | -0.18281 | 194 ft | 7 kts | 51° |
| 2026-04-21 19:46 | 51.15094 | -0.18215 | 194 ft | 9 kts | 38° |
| 2026-04-21 19:46 | 51.15113 | -0.18199 | 193 ft | 0 kts | 17° |
| 2026-04-21 19:48 | 51.15139 | -0.18196 | 192 ft | 8 kts | 356° |
| 2026-04-21 19:48 | 51.15223 | -0.18222 | 191 ft | 12 kts | 348° |
| 2026-04-21 19:48 | 51.15313 | -0.18252 | 191 ft | 13 kts | 348° |
| 2026-04-21 19:49 | 51.15408 | -0.18285 | 191 ft | 14 kts | 347° |
| 2026-04-21 19:49 | 51.15504 | -0.18318 | 191 ft | 14 kts | 348° |
| 2026-04-21 19:49 | 51.15600 | -0.18350 | 189 ft | 9 kts | 353° |
| 2026-04-21 19:49 | 51.15650 | -0.18292 | 188 ft | 10 kts | 72° |
| 2026-04-21 19:50 | 51.15663 | -0.18210 | 188 ft | 11 kts | 77° |
| 2026-04-21 19:50 | 51.15685 | -0.18047 | 190 ft | 10 kts | 78° |
| 2026-04-21 19:50 | 51.15698 | -0.17953 | 191 ft | 5 kts | 78° |
| 2026-04-21 19:50 | 51.15700 | -0.17891 | 191 ft | 5 kts | 127° |
| 2026-04-21 19:51 | 51.15667 | -0.17864 | 191 ft | 3 kts | 166° |
| 2026-04-21 19:51 | 51.15645 | -0.17856 | 191 ft | 2 kts | 168° |
| 2026-04-21 19:51 | 51.15641 | -0.17855 | 191 ft | 0 kts | 167° |